createdAt,value
2022-11-07T00:01:23.635Z,0.00
2022-11-07T00:03:54.414Z,0.00
2022-11-07T00:06:22.390Z,0.00
2022-11-07T00:08:51.203Z,0.00
2022-11-07T00:11:18.585Z,0.00
2022-11-07T00:13:46.023Z,0.00
2022-11-07T00:16:13.424Z,0.00
2022-11-07T00:18:40.842Z,0.00
2022-11-07T00:21:10.095Z,0.00
2022-11-07T00:23:40.924Z,0.00
2022-11-07T00:26:13.458Z,0.00
2022-11-07T00:28:43.530Z,0.00
2022-11-07T00:31:13.324Z,0.00
2022-11-07T00:33:42.371Z,0.00
2022-11-07T00:36:16.881Z,0.03
2022-11-07T00:38:44.524Z,0.00
2022-11-07T00:41:12.315Z,0.00
2022-11-07T00:43:40.181Z,0.00
2022-11-07T00:46:09.719Z,0.00
2022-11-07T00:48:37.425Z,0.00
2022-11-07T00:51:09.874Z,0.00
2022-11-07T00:53:37.644Z,0.00
2022-11-07T00:56:07.725Z,0.00
2022-11-07T00:58:35.670Z,0.00
2022-11-07T01:01:11.807Z,0.00
2022-11-07T01:03:58.719Z,0.00
2022-11-07T01:06:31.037Z,0.00
2022-11-07T01:08:59.205Z,0.00
2022-11-07T01:11:28.724Z,0.00
2022-11-07T01:14:00.650Z,0.00
2022-11-07T01:16:30.029Z,0.00
2022-11-07T01:18:58.104Z,0.00
2022-11-07T01:21:25.538Z,0.00
2022-11-07T01:23:52.960Z,0.00
2022-11-07T01:26:20.375Z,0.00
2022-11-07T01:28:48.203Z,0.00
2022-11-07T01:31:17.314Z,0.00
2022-11-07T01:33:45.340Z,0.00
2022-11-07T01:36:16.110Z,0.00
2022-11-07T01:38:46.323Z,0.00
2022-11-07T01:41:24.270Z,0.00
2022-11-07T01:43:56.967Z,0.00
2022-11-07T01:46:34.414Z,0.00
2022-11-07T01:49:07.944Z,0.00
2022-11-07T01:51:42.857Z,0.00
2022-11-07T01:54:11.231Z,0.00
2022-11-07T01:56:42.276Z,0.00
2022-11-07T01:59:12.909Z,0.00
2022-11-07T02:01:41.035Z,0.00
2022-11-07T02:06:48.073Z,0.00
2022-11-07T02:09:15.987Z,0.00
2022-11-07T02:11:43.378Z,0.00
2022-11-07T02:14:18.682Z,0.00
2022-11-07T02:16:47.054Z,0.00
2022-11-07T02:19:30.695Z,0.00
2022-11-07T02:22:19.363Z,0.00
2022-11-07T02:24:51.393Z,0.00
2022-11-07T02:27:21.461Z,0.00
2022-11-07T02:29:54.623Z,0.00
2022-11-07T02:32:22.332Z,0.00
2022-11-07T02:35:01.301Z,0.00
2022-11-07T02:37:32.465Z,0.00
2022-11-07T02:40:02.581Z,0.00
2022-11-07T02:42:43.280Z,0.00
2022-11-07T02:45:19.524Z,0.00
2022-11-07T02:47:47.282Z,0.00
2022-11-07T02:50:16.155Z,0.00
2022-11-07T02:52:43.818Z,1.13
2022-11-07T02:55:13.471Z,0.00
2022-11-07T02:57:41.527Z,0.00
2022-11-07T03:00:12.028Z,0.00
2022-11-07T03:02:40.502Z,0.00
2022-11-07T03:05:08.371Z,0.00
2022-11-07T03:10:03.804Z,0.00
2022-11-07T03:12:31.308Z,0.00
2022-11-07T03:14:58.728Z,0.00
2022-11-07T03:17:26.185Z,0.00
2022-11-07T03:19:53.641Z,0.00
2022-11-07T03:22:21.050Z,0.00
2022-11-07T03:24:48.449Z,0.00
2022-11-07T03:27:15.896Z,0.00
2022-11-07T03:29:43.499Z,0.00
2022-11-07T03:32:11.449Z,0.38
2022-11-07T03:34:38.945Z,0.00
2022-11-07T03:37:06.601Z,0.00
2022-11-07T03:39:34.080Z,0.00
2022-11-07T03:42:01.483Z,0.00
2022-11-07T03:44:28.914Z,0.00
2022-11-07T03:46:56.349Z,0.00
2022-11-07T03:49:23.780Z,0.00
2022-11-07T03:51:51.201Z,0.00
2022-11-07T03:54:18.595Z,0.00
2022-11-07T03:56:45.958Z,0.00
2022-11-07T03:59:13.522Z,0.00
2022-11-07T04:01:41.048Z,0.00
2022-11-07T04:04:09.112Z,0.00
2022-11-07T04:06:36.478Z,0.00
2022-11-07T04:09:04.098Z,0.20
2022-11-07T04:11:50.306Z,0.00
2022-11-07T04:14:36.342Z,0.00
2022-11-07T04:17:18.817Z,0.00
2022-11-07T04:19:51.440Z,0.00
2022-11-07T04:22:19.184Z,0.00
2022-11-07T04:24:46.700Z,0.00
2022-11-07T04:27:33.906Z,0.00
2022-11-07T04:30:21.538Z,0.00
2022-11-07T04:33:00.182Z,0.47
2022-11-07T04:35:30.494Z,0.00
2022-11-07T04:37:58.873Z,0.00
2022-11-07T04:40:27.655Z,0.00
2022-11-07T04:42:55.365Z,0.00
2022-11-07T04:45:22.896Z,0.00
2022-11-07T04:47:50.490Z,0.00
2022-11-07T04:50:19.660Z,0.00
2022-11-07T04:52:47.736Z,0.00
2022-11-07T04:55:23.319Z,0.00
2022-11-07T04:57:51.229Z,0.00
2022-11-07T05:00:19.914Z,0.00
2022-11-07T05:02:48.171Z,0.10
2022-11-07T05:07:44.225Z,0.00
2022-11-07T05:12:44.956Z,0.00
2022-11-07T05:15:12.556Z,0.00
2022-11-07T05:17:40.038Z,0.00
2022-11-07T05:20:08.205Z,0.00
2022-11-07T05:25:26.046Z,0.00
2022-11-07T05:27:56.369Z,0.00
2022-11-07T05:30:23.980Z,0.00
2022-11-07T05:32:51.375Z,0.00
2022-11-07T05:35:18.768Z,0.00
2022-11-07T05:37:46.147Z,0.00
2022-11-07T05:40:13.565Z,0.00
2022-11-07T05:42:41.107Z,0.10
2022-11-07T05:45:09.038Z,0.00
2022-11-07T05:47:36.543Z,0.00
2022-11-07T05:50:04.157Z,17.37
2022-11-07T05:52:32.181Z,0.00
2022-11-07T05:54:59.577Z,0.00
2022-11-07T05:57:30.133Z,0.00
2022-11-07T05:59:57.550Z,0.00
2022-11-07T06:02:25.253Z,0.00
2022-11-07T06:04:52.806Z,0.20
2022-11-07T06:07:22.310Z,0.00
2022-11-07T06:09:49.748Z,0.00
2022-11-07T06:12:17.211Z,0.00
2022-11-07T06:14:44.680Z,0.47
2022-11-07T06:17:12.082Z,0.37
2022-11-07T06:19:39.694Z,0.00
2022-11-07T06:22:07.110Z,0.00
2022-11-07T06:24:34.514Z,0.00
2022-11-07T06:27:01.948Z,0.00
2022-11-07T06:29:29.394Z,0.20
2022-11-07T06:31:56.849Z,0.00
2022-11-07T06:34:49.237Z,0.00
2022-11-07T06:37:18.894Z,0.00
2022-11-07T06:39:46.365Z,0.00
2022-11-07T06:42:13.925Z,0.00
2022-11-07T06:44:41.346Z,0.00
2022-11-07T06:47:08.798Z,0.00
2022-11-07T06:49:36.614Z,0.00
2022-11-07T06:52:04.637Z,0.00
2022-11-07T06:54:32.210Z,0.00
2022-11-07T06:56:59.626Z,0.00
2022-11-07T06:59:27.057Z,0.00
2022-11-07T07:01:56.977Z,0.00
2022-11-07T07:04:24.511Z,0.00
2022-11-07T07:06:52.035Z,0.00
2022-11-07T07:09:19.580Z,0.00
2022-11-07T07:11:48.186Z,0.00
2022-11-07T07:14:15.665Z,0.00
2022-11-07T07:16:43.055Z,0.00
2022-11-07T07:19:12.725Z,0.00
2022-11-07T07:21:40.303Z,0.70
2022-11-07T07:24:08.110Z,1.90
2022-11-07T07:26:35.525Z,0.00
2022-11-07T07:29:02.950Z,0.00
2022-11-07T07:31:41.282Z,0.00
2022-11-07T07:34:26.418Z,0.00
2022-11-07T07:36:54.436Z,0.00
2022-11-07T07:39:23.589Z,0.00
2022-11-07T07:41:51.173Z,0.00
2022-11-07T07:44:21.956Z,0.00
2022-11-07T07:46:53.662Z,0.00
2022-11-07T07:49:21.080Z,0.00
2022-11-07T07:51:48.480Z,0.00
2022-11-07T07:54:16.197Z,0.10
2022-11-07T07:56:43.620Z,0.00
2022-11-07T07:59:11.407Z,0.00
2022-11-07T08:01:39.034Z,0.10
2022-11-07T08:04:06.616Z,0.00
2022-11-07T08:06:37.827Z,0.00
2022-11-07T08:09:05.419Z,0.00
2022-11-07T08:11:35.337Z,0.00
2022-11-07T08:14:02.842Z,0.00
2022-11-07T08:16:30.362Z,3.10
2022-11-07T08:19:00.378Z,0.00
2022-11-07T08:21:27.828Z,0.00
2022-11-07T08:23:56.276Z,0.00
2022-11-07T08:26:23.775Z,0.10
2022-11-07T08:28:55.072Z,0.00
2022-11-07T08:31:22.622Z,0.00
2022-11-07T08:33:50.249Z,0.00
2022-11-07T08:36:17.740Z,0.00
2022-11-07T08:38:45.164Z,0.65
2022-11-07T08:41:12.585Z,0.00
2022-11-07T08:43:40.296Z,0.00
2022-11-07T08:46:07.787Z,0.00
2022-11-07T08:48:35.325Z,0.00
2022-11-07T08:51:03.634Z,3.20
2022-11-07T08:56:04.905Z,0.00
2022-11-07T08:58:32.906Z,0.00
2022-11-07T09:01:01.001Z,0.00
2022-11-07T09:03:45.075Z,0.00
2022-11-07T09:06:15.500Z,0.00
2022-11-07T09:08:43.027Z,24.27
2022-11-07T09:11:10.881Z,31.58
2022-11-07T09:13:38.923Z,24.15
2022-11-07T09:16:06.723Z,21.80
2022-11-07T09:18:34.376Z,26.45
2022-11-07T09:21:02.762Z,24.55
2022-11-07T09:23:30.790Z,24.98
2022-11-07T09:26:01.522Z,37.42
2022-11-07T09:28:29.498Z,23.17
2022-11-07T09:30:58.846Z,26.33
2022-11-07T09:33:26.831Z,31.88
2022-11-07T09:35:55.013Z,31.58
2022-11-07T09:41:10.862Z,27.02
2022-11-07T09:43:55.574Z,26.80
2022-11-07T09:46:28.737Z,21.60
2022-11-07T09:49:12.886Z,28.55
2022-11-07T09:51:46.102Z,27.58
2022-11-07T09:54:21.316Z,21.52
2022-11-07T09:56:49.077Z,21.83
2022-11-07T09:59:45.572Z,29.60
2022-11-07T10:02:19.274Z,22.05
2022-11-07T10:04:50.163Z,27.33
2022-11-07T10:07:29.290Z,26.23
2022-11-07T10:10:06.435Z,24.23
2022-11-07T10:12:52.531Z,27.48
2022-11-07T10:15:23.059Z,32.72
2022-11-07T10:18:15.163Z,28.42
2022-11-07T10:21:35.851Z,22.30
2022-11-07T10:24:27.031Z,29.85
2022-11-07T10:26:57.236Z,38.63
2022-11-07T10:29:44.669Z,42.95
2022-11-07T10:32:19.611Z,30.45
2022-11-07T10:35:01.237Z,38.35
2022-11-07T10:37:28.700Z,38.83
2022-11-07T10:39:56.194Z,50.10
2022-11-07T10:42:30.786Z,33.22
2022-11-07T10:44:59.475Z,45.30
2022-11-07T10:47:27.995Z,39.22
2022-11-07T10:49:59.541Z,41.15
2022-11-07T10:52:28.377Z,36.10
2022-11-07T10:55:15.627Z,34.53
2022-11-07T10:57:44.611Z,33.58
2022-11-07T11:00:27.621Z,44.47
2022-11-07T11:02:57.217Z,36.40
2022-11-07T11:05:46.130Z,33.55
2022-11-07T11:08:16.792Z,31.92
2022-11-07T11:10:45.209Z,33.13
2022-11-07T11:13:33.137Z,29.23
2022-11-07T11:18:37.160Z,23.98
2022-11-07T11:21:06.701Z,19.08
2022-11-07T11:23:41.993Z,16.55
2022-11-07T11:26:23.983Z,22.13
2022-11-07T11:29:09.107Z,25.85
2022-11-07T11:31:42.386Z,25.38
2022-11-07T11:34:21.886Z,30.50
2022-11-07T11:37:01.816Z,28.88
2022-11-07T11:40:06.048Z,20.30
2022-11-07T11:42:37.326Z,27.95
2022-11-07T11:45:32.372Z,26.25
2022-11-07T11:48:18.992Z,24.73
2022-11-07T11:50:54.309Z,29.92
2022-11-07T11:53:23.700Z,30.52
2022-11-07T11:56:00.308Z,23.20
2022-11-07T11:58:47.538Z,27.20
2022-11-07T12:01:35.680Z,25.90
2022-11-07T12:04:37.066Z,29.70
2022-11-07T12:07:31.348Z,27.45
2022-11-07T12:10:08.344Z,32.78
2022-11-07T12:13:13.010Z,26.75
2022-11-07T12:15:47.717Z,33.45
2022-11-07T12:18:31.738Z,27.05
2022-11-07T12:21:33.157Z,26.65
2022-11-07T12:24:25.878Z,29.92
2022-11-07T12:27:08.360Z,28.10
2022-11-07T12:30:06.358Z,26.75
2022-11-07T12:33:03.545Z,27.05
2022-11-07T12:35:31.098Z,32.80
2022-11-07T12:38:29.708Z,29.13
2022-11-07T12:41:25.055Z,34.63
2022-11-07T12:44:08.009Z,32.38
2022-11-07T12:46:44.420Z,29.23
2022-11-07T12:49:18.008Z,28.15
2022-11-07T12:52:09.926Z,30.48
2022-11-07T12:55:14.555Z,32.78
2022-11-07T12:57:42.929Z,29.48
2022-11-07T13:00:29.627Z,25.45
2022-11-07T13:03:34.186Z,26.00
2022-11-07T13:06:15.228Z,29.23
2022-11-07T13:08:59.998Z,25.38
2022-11-07T13:11:37.693Z,23.50
2022-11-07T13:14:19.601Z,33.17
2022-11-07T13:17:15.341Z,26.48
2022-11-07T13:19:45.818Z,34.60
2022-11-07T13:22:16.303Z,30.52
2022-11-07T13:25:07.512Z,26.92
2022-11-07T13:28:01.592Z,21.88
2022-11-07T13:30:37.495Z,26.38
2022-11-07T13:33:06.676Z,31.00
2022-11-07T13:35:38.706Z,37.75
2022-11-07T13:38:12.353Z,36.15
2022-11-07T13:40:52.327Z,34.95
2022-11-07T13:43:35.271Z,32.85
2022-11-07T13:46:06.662Z,40.22
2022-11-07T13:48:35.019Z,34.30
2022-11-07T13:54:00.123Z,40.58
2022-11-07T13:56:40.263Z,33.50
2022-11-07T13:59:20.795Z,39.15
2022-11-07T14:01:57.613Z,34.05
2022-11-07T14:04:27.951Z,32.92
2022-11-07T14:06:59.172Z,39.55
2022-11-07T14:09:28.915Z,32.38
2022-11-07T14:11:59.365Z,37.33
2022-11-07T14:14:29.240Z,37.75
2022-11-07T14:17:00.400Z,45.63
2022-11-07T14:19:30.224Z,52.58
2022-11-07T14:21:57.719Z,46.97
2022-11-07T14:24:28.386Z,46.63
2022-11-07T14:27:01.712Z,45.85
2022-11-07T14:29:29.609Z,45.60
2022-11-07T14:32:02.963Z,44.13
2022-11-07T14:34:31.129Z,50.72
2022-11-07T14:37:05.452Z,44.15
2022-11-07T14:39:33.810Z,46.70
2022-11-07T14:42:03.030Z,50.08
2022-11-07T14:44:54.496Z,51.30
2022-11-07T14:47:29.052Z,57.80
2022-11-07T14:49:57.743Z,40.03
2022-11-07T14:52:29.286Z,48.22
2022-11-07T14:55:08.368Z,44.95
2022-11-07T14:57:38.095Z,45.33
2022-11-07T15:00:08.081Z,47.45
2022-11-07T15:02:36.329Z,45.10
2022-11-07T15:05:10.638Z,41.80
2022-11-07T15:07:47.436Z,37.05
2022-11-07T15:10:27.309Z,58.85
2022-11-07T15:13:01.203Z,51.58
2022-11-07T15:15:34.566Z,48.35
2022-11-07T15:18:05.130Z,48.15
2022-11-07T15:20:39.647Z,65.22
2022-11-07T15:23:14.541Z,49.50
2022-11-07T15:25:53.147Z,46.20
2022-11-07T15:28:30.487Z,42.80
2022-11-07T15:31:01.463Z,52.97
2022-11-07T15:33:33.065Z,46.38
2022-11-07T15:36:23.898Z,45.65
2022-11-07T15:38:52.404Z,35.85
2022-11-07T15:41:20.025Z,41.38
2022-11-07T15:43:47.631Z,40.50
2022-11-07T15:46:33.650Z,39.40
2022-11-07T15:49:02.555Z,39.42
2022-11-07T15:51:30.781Z,46.70
2022-11-07T15:54:00.732Z,48.55
2022-11-07T15:56:29.193Z,43.28
2022-11-07T15:58:56.679Z,41.50
2022-11-07T16:01:24.667Z,43.20
2022-11-07T16:03:52.425Z,44.88
2022-11-07T16:06:29.118Z,50.13
2022-11-07T16:08:57.101Z,51.50
2022-11-07T16:11:24.559Z,45.80
2022-11-07T16:13:59.209Z,39.95
2022-11-07T16:16:37.398Z,56.17
2022-11-07T16:19:05.642Z,43.15
2022-11-07T16:26:29.915Z,33.25
2022-11-07T16:28:57.339Z,30.75
2022-11-07T16:31:24.959Z,30.20
2022-11-07T16:33:53.585Z,37.55
2022-11-07T16:36:33.997Z,33.65
2022-11-07T16:39:02.844Z,25.10
2022-11-07T16:41:30.285Z,30.88
2022-11-07T16:43:58.157Z,28.60
2022-11-07T16:46:28.323Z,33.50
2022-11-07T16:49:20.062Z,37.85
2022-11-07T16:51:47.495Z,34.67
2022-11-07T16:54:14.938Z,31.92
2022-11-07T16:56:42.974Z,35.92
2022-11-07T16:59:18.887Z,28.13
2022-11-07T17:01:47.004Z,38.30
2022-11-07T17:06:47.395Z,32.13
2022-11-07T17:09:17.371Z,30.88
2022-11-07T17:11:45.043Z,32.70
2022-11-07T17:14:13.147Z,38.92
2022-11-07T17:16:44.050Z,34.25
2022-11-07T17:19:13.513Z,35.53
2022-11-07T17:21:46.132Z,36.00
2022-11-07T17:24:13.935Z,43.03
2022-11-07T17:26:41.512Z,49.75
2022-11-07T17:29:15.792Z,37.90
2022-11-07T17:31:43.648Z,34.45
2022-11-07T17:34:12.715Z,43.40
2022-11-07T17:36:46.220Z,44.55
2022-11-07T17:39:16.637Z,43.58
2022-11-07T17:41:46.230Z,50.53
2022-11-07T17:44:13.989Z,42.65
2022-11-07T17:46:43.935Z,48.15
2022-11-07T17:49:17.800Z,50.50
2022-11-07T17:51:45.646Z,50.65
2022-11-07T17:54:14.909Z,41.55
2022-11-07T17:56:42.700Z,50.78
2022-11-07T17:59:18.000Z,49.55
2022-11-07T18:01:46.004Z,44.45
2022-11-07T18:04:14.022Z,62.72
2022-11-07T18:06:42.840Z,56.15
2022-11-07T18:09:19.338Z,55.25
2022-11-07T18:11:47.205Z,48.72
2022-11-07T18:14:14.659Z,48.95
2022-11-07T18:16:42.082Z,53.20
2022-11-07T18:19:09.690Z,57.03
2022-11-07T18:21:37.539Z,48.25
2022-11-07T18:24:05.266Z,42.23
2022-11-07T18:26:36.195Z,61.33
2022-11-07T18:29:07.311Z,52.83
2022-11-07T18:31:35.622Z,49.50
2022-11-07T18:36:36.858Z,61.15
2022-11-07T18:39:16.994Z,53.88
2022-11-07T18:41:45.029Z,52.53
2022-11-07T18:44:13.014Z,57.30
2022-11-07T18:46:40.949Z,49.53
2022-11-07T18:49:08.944Z,56.25
2022-11-07T18:51:36.327Z,47.55
2022-11-07T18:54:05.144Z,54.53
2022-11-07T18:56:33.353Z,49.50
2022-11-07T18:59:00.920Z,47.90
2022-11-07T19:01:32.215Z,57.75
2022-11-07T19:04:03.513Z,46.88
2022-11-07T19:06:31.454Z,64.32
2022-11-07T19:08:59.274Z,43.78
2022-11-07T19:11:29.518Z,41.80
2022-11-07T19:14:01.116Z,39.63
2022-11-07T19:16:29.548Z,39.33
2022-11-07T19:18:58.717Z,39.63
2022-11-07T19:21:26.327Z,40.25
2022-11-07T19:23:53.880Z,32.60
2022-11-07T19:26:21.320Z,44.42
2022-11-07T19:28:48.984Z,43.20
2022-11-07T19:31:16.602Z,47.00
2022-11-07T19:33:44.927Z,48.53
2022-11-07T19:36:18.398Z,47.50
2022-11-07T19:38:47.200Z,41.08
2022-11-07T19:41:16.160Z,30.50
2022-11-07T19:43:48.361Z,47.75
2022-11-07T19:46:23.431Z,38.90
2022-11-07T19:48:51.477Z,46.20
2022-11-07T19:51:23.354Z,45.42
2022-11-07T19:54:02.336Z,45.70
2022-11-07T19:56:33.011Z,43.03
2022-11-07T19:59:01.442Z,38.22
2022-11-07T20:01:33.530Z,48.63
2022-11-07T20:04:01.750Z,50.28
2022-11-07T20:06:35.351Z,47.65
2022-11-07T20:09:06.163Z,41.70
2022-11-07T20:11:34.078Z,43.42
2022-11-07T20:14:03.911Z,35.53
2022-11-07T20:16:33.482Z,49.97
2022-11-07T20:19:01.675Z,50.33
2022-11-07T20:23:59.445Z,33.92
2022-11-07T20:26:29.018Z,38.95
2022-11-07T20:28:56.554Z,37.15
2022-11-07T20:31:27.307Z,34.42
2022-11-07T20:33:58.284Z,40.85
2022-11-07T20:36:26.652Z,32.28
2022-11-07T20:38:55.495Z,37.15
2022-11-07T20:41:23.760Z,36.20
2022-11-07T20:44:01.129Z,33.17
2022-11-07T20:46:28.738Z,38.10
2022-11-07T20:48:58.157Z,36.92
2022-11-07T20:51:26.328Z,36.67
2022-11-07T20:53:54.721Z,33.80
2022-11-07T20:56:24.635Z,32.60
2022-11-07T20:58:52.688Z,37.85
2022-11-07T21:03:49.493Z,38.97
2022-11-07T21:06:18.601Z,34.08
2022-11-07T21:08:48.981Z,36.78
2022-11-07T21:11:17.220Z,32.67
2022-11-07T21:13:52.427Z,33.95
2022-11-07T21:16:22.042Z,38.67
2022-11-07T21:18:50.778Z,33.38
2022-11-07T21:21:24.228Z,39.72
2022-11-07T21:23:52.356Z,32.78
2022-11-07T21:26:26.671Z,40.17
2022-11-07T21:28:54.967Z,36.45
2022-11-07T21:33:52.150Z,29.52
2022-11-07T21:36:23.144Z,35.05
2022-11-07T21:38:50.817Z,28.83
2022-11-07T21:41:18.259Z,32.88
2022-11-07T21:43:46.064Z,32.40
2022-11-07T21:46:16.222Z,36.90
2022-11-07T21:48:45.650Z,39.15
2022-11-07T21:51:21.350Z,35.38
2022-11-07T21:53:49.755Z,35.47
2022-11-07T21:56:23.580Z,30.08
2022-11-07T21:58:53.010Z,31.30
2022-11-07T22:01:21.673Z,32.58
2022-11-07T22:04:07.848Z,28.52
2022-11-07T22:06:38.376Z,35.88
2022-11-07T22:09:08.105Z,30.58
2022-11-07T22:11:35.926Z,33.55
2022-11-07T22:14:05.896Z,37.28
2022-11-07T22:16:36.182Z,32.17
2022-11-07T22:19:05.275Z,32.45
2022-11-07T22:21:35.953Z,29.52
2022-11-07T22:24:03.515Z,35.05
2022-11-07T22:26:31.015Z,26.25
2022-11-07T22:28:58.587Z,35.38
2022-11-07T22:31:30.143Z,25.08
2022-11-07T22:33:59.477Z,26.92
2022-11-07T22:36:27.158Z,24.70
2022-11-07T22:38:57.319Z,31.38
2022-11-07T22:41:26.202Z,29.10
2022-11-07T22:43:53.850Z,24.23
2022-11-07T22:46:23.806Z,37.03
2022-11-07T22:48:52.341Z,31.17
2022-11-07T22:51:25.523Z,29.50
2022-11-07T22:54:04.178Z,26.73
2022-11-07T22:56:33.039Z,29.63
2022-11-07T22:59:00.817Z,22.92
2022-11-07T23:01:31.637Z,25.63
2022-11-07T23:03:59.636Z,28.98
2022-11-07T23:06:28.615Z,21.80
2022-11-07T23:08:57.937Z,24.05
2022-11-07T23:11:46.364Z,25.42
2022-11-07T23:14:16.078Z,24.75
2022-11-07T23:16:50.016Z,21.85
2022-11-07T23:19:19.726Z,34.30
2022-11-07T23:21:47.584Z,21.30
2022-11-07T23:24:15.106Z,19.23
2022-11-07T23:26:42.627Z,22.27
2022-11-07T23:29:19.866Z,23.13
2022-11-07T23:31:49.735Z,25.63
2022-11-07T23:34:18.421Z,30.30
2022-11-07T23:36:46.231Z,24.65
2022-11-07T23:39:16.260Z,23.30
2022-11-07T23:41:44.424Z,24.65
2022-11-07T23:44:13.413Z,20.48
2022-11-07T23:46:59.670Z,21.77
2022-11-07T23:49:48.778Z,25.85
2022-11-07T23:52:16.708Z,22.38
2022-11-07T23:55:02.789Z,23.30
2022-11-07T23:57:34.233Z,32.88
